Time;durP1;ratioP1;P1;durP2;ratioP2;P2;SDS_P1;SDS_P2;PMS_P1;PMS_P2;Temp;Humidity;BMP_temperature;BMP_pressure;BME280_temperature;BME280_humidity;BME280_pressure;Samples;Min_cycle;Max_cycle;Signal;HPM_P1;HPM_P2
2022/07/23 00:02:24;;;;;;;21.90;6.63;;;;;;;;;;5010951;28;20448;-72
2022/07/23 00:04:49;;;;;;;13.33;5.17;;;;;;;22.26;nan;100443.16;5013716;28;20427;-72
2022/07/23 00:07:15;;;;;;;15.63;5.50;;;;;;;22.25;nan;100504.06;5007526;28;20302;-72
2022/07/23 00:09:40;;;;;;;15.45;6.25;;;;;;;22.17;nan;100440.41;5012864;28;20025;-72
2022/07/23 00:12:06;;;;;;;20.95;6.15;;;;;;;22.08;nan;100408.13;5012804;28;20096;-71
2022/07/23 00:14:32;;;;;;;21.83;5.60;;;;;;;22.15;nan;100460.53;5011464;28;20091;-71
2022/07/23 00:16:57;;;;;;;20.10;5.45;;;;;;;22.05;nan;100394.50;5011899;28;20034;-71
2022/07/23 00:19:22;;;;;;;12.43;5.53;;;;;;;22.09;nan;100407.00;5010742;28;20022;-71
2022/07/23 00:21:48;;;;;;;16.42;5.25;;;;;;;22.04;nan;100433.94;5012315;28;20034;-71
2022/07/23 00:24:13;;;;;;;18.08;5.43;;;;;;;21.99;nan;100431.38;5012248;28;20053;-71
2022/07/23 00:26:39;;;;;;;15.77;5.50;;;;;;;21.92;nan;100384.63;5012384;28;20034;-71
2022/07/23 00:29:04;;;;;;;20.52;5.07;;;;;;;21.92;nan;100427.50;5011845;28;20045;-72
2022/07/23 00:31:29;;;;;;;14.18;5.18;;;;;;;21.86;nan;100422.25;5012108;28;20121;-71
2022/07/23 00:34:00;;;;;;;17.88;6.50;;;;;;;21.80;nan;100423.44;5012816;28;20034;-71
2022/07/23 00:36:26;;;;;;;19.98;5.05;;;;;;;21.75;nan;100431.59;5013041;28;20030;-73
2022/07/23 00:38:52;;;;;;;12.55;5.15;;;;;;;;;;5011839;28;20101;-71
2022/07/23 00:41:17;;;;;;;17.57;5.77;;;;;;;21.66;nan;100426.13;5007284;28;20035;-71
2022/07/23 00:43:42;;;;;;;17.17;5.18;;;;;;;21.62;nan;100384.16;5010954;28;20267;-71
2022/07/23 00:46:08;;;;;;;16.15;5.60;;;;;;;21.54;nan;100457.19;5013256;28;20073;-71
2022/07/23 00:48:33;;;;;;;20.45;4.78;;;;;;;21.44;nan;100467.00;5010644;28;20080;-73
2022/07/23 00:50:59;;;;;;;12.02;5.30;;;;;;;21.35;nan;100393.75;5012813;28;20468;-73
2022/07/23 00:53:24;;;;;;;18.98;6.32;;;;;;;21.32;nan;100412.31;5010187;28;20026;-71
2022/07/23 00:55:50;;;;;;;17.05;6.05;;;;;;;21.30;nan;100414.50;5011210;28;20057;-71
2022/07/23 00:58:16;;;;;;;16.58;5.20;;;;;;;21.22;nan;100389.97;5012193;28;20029;-71
2022/07/23 01:00:42;;;;;;;17.15;6.07;;;;;;;21.18;nan;100406.94;5013511;28;20042;-71
2022/07/23 01:03:07;;;;;;;14.27;5.18;;;;;;;21.13;nan;100373.00;5011375;28;20038;-71
2022/07/23 01:05:33;;;;;;;19.05;5.60;;;;;;;21.11;nan;100401.97;5012883;28;20041;-71
2022/07/23 01:07:59;;;;;;;15.90;5.13;;;;;;;21.10;nan;100415.66;5008761;28;20033;-71
2022/07/23 01:10:31;;;;;;;31.92;5.15;;;;;;;21.08;nan;100433.91;5012129;28;20037;-72
2022/07/23 01:13:02;;;;;;;19.42;5.72;;;;;;;21.01;nan;100386.09;5012273;28;20030;-72
2022/07/23 01:15:29;;;;;;;19.45;4.75;;;;;;;21.00;nan;100400.56;5010340;28;20030;-72
2022/07/23 01:17:55;;;;;;;14.57;5.35;;;;;;;20.92;nan;100452.88;5012498;28;20445;-72
2022/07/23 01:20:21;;;;;;;14.02;5.35;;;;;;;20.87;nan;100420.84;5012674;28;20044;-72
2022/07/23 01:22:47;;;;;;;18.77;5.90;;;;;;;20.86;nan;100423.84;5012441;28;20528;-72
2022/07/23 01:25:12;;;;;;;17.60;5.38;;;;;;;20.80;nan;100423.88;5009852;28;20049;-71
2022/07/23 01:27:38;;;;;;;17.85;5.32;;;;;;;20.75;nan;100405.25;5010853;28;20084;-72
2022/07/23 01:30:04;;;;;;;14.77;5.25;;;;;;;20.68;nan;100401.34;5011056;28;20034;-72
2022/07/23 01:32:29;;;;;;;14.35;5.45;;;;;;;20.62;nan;100576.47;5007700;28;20112;-72
2022/07/23 01:34:55;;;;;;;15.80;5.45;;;;;;;20.60;nan;100408.97;5009986;28;20121;-71
2022/07/23 01:37:20;;;;;;;21.48;5.93;;;;;;;20.59;nan;100406.56;5011609;28;20030;-73
2022/07/23 01:39:46;;;;;;;15.90;5.05;;;;;;;20.58;nan;100421.84;5010588;28;20041;-73
2022/07/23 01:42:11;;;;;;;25.13;5.63;;;;;;;20.54;nan;100426.16;5009881;28;20057;-71
2022/07/23 01:44:37;;;;;;;20.52;6.20;;;;;;;20.53;nan;100474.59;5010536;28;20733;-71
2022/07/23 01:47:02;;;;;;;15.90;5.20;;;;;;;20.47;nan;100416.91;5006075;28;20038;-73
2022/07/23 01:49:28;;;;;;;13.20;5.45;;;;;;;20.37;nan;100413.28;5012060;28;20079;-73
2022/07/23 01:51:59;;;;;;;12.50;5.40;;;;;;;20.32;nan;100409.91;5010490;28;20029;-73
2022/07/23 01:54:26;;;;;;;18.63;5.40;;;;;;;20.30;nan;100423.53;5008921;28;20277;-71
2022/07/23 01:56:51;;;;;;;18.40;6.35;;;;;;;20.26;nan;100422.56;5008611;28;20034;-71
2022/07/23 01:59:17;;;;;;;15.48;5.82;;;;;;;20.22;nan;100477.69;5013005;28;20530;-71
2022/07/23 02:01:42;;;;;;;14.93;5.45;;;;;;;20.17;nan;100425.06;5010751;28;20110;-74
2022/07/23 02:04:07;;;;;;;17.10;5.68;;;;;;;20.07;nan;100390.47;5009259;28;20033;-72
2022/07/23 02:06:33;;;;;;;21.65;6.07;;;;;;;20.08;nan;100431.34;5011701;28;20468;-73
2022/07/23 02:08:58;;;;;;;18.58;6.07;;;;;;;20.03;nan;100424.19;5010932;28;20038;-73
2022/07/23 02:11:23;;;;;;;22.23;5.70;;;;;;;19.95;nan;100408.81;5009600;28;20053;-70
2022/07/23 02:13:49;;;;;;;16.13;5.85;;;;;;;19.91;nan;100394.41;5010907;28;20033;-71
2022/07/23 02:16:14;;;;;;;15.68;5.72;;;;;;;19.88;nan;100425.19;5010457;28;20427;-70
2022/07/23 02:18:40;;;;;;;19.98;5.82;;;;;;;19.84;nan;100415.34;5011273;28;20041;-71
2022/07/23 02:21:05;;;;;;;19.55;6.05;;;;;;;19.84;nan;100400.09;5008205;28;20534;-72
2022/07/23 02:23:31;;;;;;;16.73;6.25;;;;;;;19.83;nan;100421.78;5008539;28;20053;-71
2022/07/23 02:25:56;;;;;;;21.17;7.10;;;;;;;19.81;nan;100427.41;5021918;28;20096;-71
2022/07/23 02:28:22;;;;;;;19.15;6.35;;;;;;;19.80;nan;100419.66;5009191;28;20480;-71
2022/07/23 02:30:47;;;;;;;19.45;5.90;;;;;;;;;;5020272;28;20121;-71
2022/07/23 02:33:12;;;;;;;12.83;5.63;;;;;;;;;;5009799;28;20038;-71
2022/07/23 02:35:38;;;;;;;16.43;5.33;;;;;;;19.50;nan;100392.22;5011841;28;20452;-71
2022/07/23 02:38:03;;;;;;;11.88;5.10;;;;;;;19.54;nan;100433.31;5009754;28;20042;-71
2022/07/23 02:40:29;;;;;;;11.75;5.55;;;;;;;19.58;nan;100445.00;5003229;28;20026;-71
2022/07/23 02:42:54;;;;;;;14.77;5.63;;;;;;;19.60;nan;100437.50;5011694;28;20414;-71
2022/07/23 02:45:19;;;;;;;9.63;5.30;;;;;;;19.59;nan;100433.25;5011718;28;20439;-72
2022/07/23 02:47:45;;;;;;;10.02;5.20;;;;;;;19.58;nan;100393.44;5010024;28;20069;-71
2022/07/23 02:50:11;;;;;;;20.85;5.63;;;;;;;19.54;nan;100433.31;5009714;28;20056;-71
2022/07/23 02:52:38;;;;;;;15.88;5.85;;;;;;;19.55;nan;100445.56;5010383;28;20077;-72
2022/07/23 02:55:04;;;;;;;13.45;5.28;;;;;;;19.53;nan;100445.84;5004367;28;20045;-71
2022/07/23 02:57:29;;;;;;;10.25;5.15;;;;;;;19.54;nan;100442.09;5013460;28;20034;-71
2022/07/23 02:59:54;;;;;;;10.43;5.28;;;;;;;19.43;nan;100491.34;5017613;28;20041;-71
2022/07/23 03:02:20;;;;;;;15.80;5.65;;;;;;;19.42;nan;100446.22;5011470;28;20030;-70
2022/07/23 03:04:45;;;;;;;16.13;5.63;;;;;;;19.38;nan;100455.91;5015025;28;20041;-71
2022/07/23 03:07:11;;;;;;;10.98;5.45;;;;;;;19.29;nan;100455.72;5011913;28;20117;-72
2022/07/23 03:09:36;;;;;;;11.00;5.35;;;;;;;19.30;nan;100444.75;5014850;28;20026;-72
2022/07/23 03:12:02;;;;;;;12.85;5.57;;;;;;;19.31;nan;100446.34;5013333;28;20065;-72
2022/07/23 03:14:27;;;;;;;12.38;5.53;;;;;;;19.29;nan;100490.41;5014454;28;20182;-72
2022/07/23 03:16:54;;;;;;;15.68;5.15;;;;;;;19.30;nan;100450.09;5014828;28;20030;-72
2022/07/23 03:19:19;;;;;;;11.13;5.57;;;;;;;19.30;nan;100490.16;5014940;28;20030;-72
2022/07/23 03:21:45;;;;;;;11.55;5.30;;;;;;;19.31;nan;100472.25;5014802;28;20030;-72
2022/07/23 03:24:10;;;;;;;14.15;5.65;;;;;;;19.32;nan;100460.47;5011952;28;20042;-71
2022/07/23 03:26:36;;;;;;;14.65;5.95;;;;;;;19.24;nan;100450.41;5014414;28;20030;-72
2022/07/23 03:29:03;;;;;;;12.65;5.50;;;;;;;19.26;nan;100429.59;5014055;28;20051;-71
2022/07/23 03:31:30;;;;;;;15.02;5.47;;;;;;;19.24;nan;100471.78;5011835;28;20034;-71
2022/07/23 03:33:56;;;;;;;15.60;5.50;;;;;;;19.19;nan;100445.94;5020848;28;20417;-72
2022/07/23 03:36:22;;;;;;;13.98;5.20;;;;;;;19.21;nan;100475.03;5014267;28;20124;-72
2022/07/23 03:38:47;;;;;;;10.85;5.50;;;;;;;19.18;nan;100481.72;5014001;28;20044;-72
2022/07/23 03:41:12;;;;;;;15.63;5.57;;;;;;;19.14;nan;100478.00;5014557;28;20476;-71
2022/07/23 03:43:38;;;;;;;14.25;6.00;;;;;;;19.16;nan;100477.75;5014689;28;20045;-72
2022/07/23 03:46:03;;;;;;;13.10;5.70;;;;;;;19.13;nan;100476.44;5014269;28;20032;-72
2022/07/23 03:48:29;;;;;;;16.58;5.40;;;;;;;19.11;nan;100486.59;5014002;28;20097;-71
2022/07/23 03:50:54;;;;;;;26.75;6.38;;;;;;;19.10;nan;100490.31;5014304;28;20041;-72
2022/07/23 03:53:19;;;;;;;12.90;5.85;;;;;;;;;;5008782;28;20022;-72
2022/07/23 03:55:45;;;;;;;21.00;6.43;;;;;;;19.09;nan;100500.19;5011566;28;20056;-71
2022/07/23 03:58:10;;;;;;;15.55;5.35;;;;;;;19.09;nan;100496.72;5011303;28;20259;-72
2022/07/23 04:00:36;;;;;;;20.17;6.15;;;;;;;18.97;nan;100472.28;5017308;28;20030;-72
2022/07/23 04:03:01;;;;;;;14.35;5.28;;;;;;;18.92;nan;100543.28;5012075;28;20547;-72
2022/07/23 04:05:27;;;;;;;11.32;5.70;;;;;;;18.89;nan;100485.16;5014636;28;20392;-72
2022/07/23 04:07:52;;;;;;;21.75;6.00;;;;;;;18.82;nan;100483.84;5010063;28;20038;-72
2022/07/23 04:10:18;;;;;;;16.85;6.07;;;;;;;18.74;nan;100479.06;5013095;28;20026;-73
2022/07/23 04:12:43;;;;;;;19.77;5.82;;;;;;;;;;5014206;28;20091;-72
2022/07/23 04:15:09;;;;;;;16.83;5.73;;;;;;;18.80;nan;100472.69;5014719;28;20484;-73
2022/07/23 04:17:34;;;;;;;18.77;6.22;;;;;;;18.83;nan;100480.91;5016407;28;20268;-71
2022/07/23 04:20:00;;;;;;;18.48;5.78;;;;;;;18.89;nan;100484.31;5017841;28;20029;-73
2022/07/23 04:22:25;;;;;;;19.30;5.40;;;;;;;;;;5018134;28;20087;-74
2022/07/23 04:24:50;;;;;;;17.77;5.20;;;;;;;;;;5017271;28;20054;-73
2022/07/23 04:27:16;;;;;;;16.47;5.27;;;;;;;19.22;nan;100476.59;5018404;28;20259;-73
2022/07/23 04:29:41;;;;;;;14.98;5.57;;;;;;;19.34;nan;100469.78;5017391;28;20033;-73
2022/07/23 04:32:07;;;;;;;19.40;5.30;;;;;;;19.47;nan;100489.72;5013419;28;20034;-74
2022/07/23 04:34:32;;;;;;;13.98;6.00;;;;;;;;;;5017279;28;20373;-72
2022/07/23 04:36:57;;;;;;;11.70;5.18;;;;;;;;;;5013156;28;20084;-72
2022/07/23 04:39:23;;;;;;;10.60;5.20;;;;;;;19.75;nan;100528.22;5016180;28;20037;-72
2022/07/23 04:41:48;;;;;;;16.55;5.13;;;;;;;19.89;nan;100490.91;5017113;28;20083;-73
2022/07/23 04:44:14;;;;;;;18.48;5.35;;;;;;;19.96;nan;100461.94;5015004;28;20033;-72
2022/07/23 04:46:39;;;;;;;15.45;5.22;;;;;;;20.08;nan;100488.28;5016558;28;20034;-72
2022/07/23 04:49:04;;;;;;;15.85;5.28;;;;;;;20.14;nan;100545.97;5014332;28;20033;-73
2022/07/23 04:51:30;;;;;;;14.70;5.18;;;;;;;20.28;nan;100467.72;5015258;28;20033;-72
2022/07/23 04:53:55;;;;;;;16.00;5.30;;;;;;;20.33;nan;100471.13;5012978;28;20488;-72
2022/07/23 04:56:21;;;;;;;15.02;5.60;;;;;;;20.49;nan;100477.03;5015812;28;20103;-72
2022/07/23 04:58:47;;;;;;;11.18;4.72;;;;;;;20.49;nan;100517.16;5017628;28;20052;-74
2022/07/23 05:01:12;;;;;;;12.82;5.45;;;;;;;20.63;nan;100487.06;5015170;28;20124;-71
2022/07/23 05:03:38;;;;;;;17.52;6.13;;;;;;;20.73;nan;100481.56;5026258;28;20029;-73
2022/07/23 05:06:03;;;;;;;17.02;5.60;;;;;;;;;;5015022;28;20087;-73
2022/07/23 05:08:29;;;;;;;11.27;5.60;;;;;;;20.92;nan;100455.56;5012507;28;20040;-74
2022/07/23 05:10:54;;;;;;;18.77;5.70;;;;;;;21.04;nan;100482.66;5012540;28;20037;-73
2022/07/23 05:13:20;;;;;;;14.32;5.85;;;;;;;21.09;nan;100473.75;5012902;28;20724;-73
2022/07/23 05:15:45;;;;;;;14.88;6.18;;;;;;;21.24;nan;100484.22;5012101;28;20112;-73
2022/07/23 05:18:11;;;;;;;18.42;5.60;;;;;;;21.37;nan;100463.09;5011056;28;20038;-73
2022/07/23 05:20:37;;;;;;;15.02;5.10;;;;;;;21.52;nan;100437.94;5012489;28;20034;-73
2022/07/23 05:23:03;;;;;;;11.45;5.10;;;;;;;21.61;nan;100450.34;5012560;28;20034;-72
2022/07/23 05:25:28;;;;;;;15.63;5.20;;;;;;;21.72;nan;100464.38;5011136;28;20152;-73
2022/07/23 05:27:54;;;;;;;16.55;5.10;;;;;;;21.84;nan;100458.50;5009966;28;20037;-74
2022/07/23 05:30:19;;;;;;;9.30;4.75;;;;;;;21.98;nan;100434.34;5010513;28;20030;-75
2022/07/23 05:32:45;;;;;;;12.18;5.38;;;;;;;22.03;nan;100394.03;5009460;28;20099;-72
2022/07/23 05:35:10;;;;;;;17.77;5.43;;;;;;;22.23;nan;100479.44;5011352;28;20448;-73
2022/07/23 05:37:36;;;;;;;13.77;5.45;;;;;;;22.38;nan;100493.63;5010770;28;20092;-73
2022/07/23 05:40:07;;;;;;;13.75;4.90;;;;;;;;;;5009532;28;20030;-73
2022/07/23 05:42:33;;;;;;;9.48;5.97;;;;;;;22.52;nan;100454.91;5013578;28;20034;-73
2022/07/23 05:44:58;;;;;;;15.93;5.13;;;;;;;22.70;nan;100490.75;5011001;28;20029;-75
2022/07/23 05:47:24;;;;;;;17.70;5.20;;;;;;;22.78;nan;100457.00;5012272;28;20500;-72
2022/07/23 05:49:49;;;;;;;21.30;5.57;;;;;;;23.00;nan;100453.53;5011912;28;20120;-73
2022/07/23 05:52:15;;;;;;;15.75;5.38;;;;;;;23.13;nan;100468.00;5010462;28;20042;-73
2022/07/23 05:54:41;;;;;;;13.77;5.72;;;;;;;23.29;nan;100479.13;5010019;28;20030;-73
2022/07/23 05:57:07;;;;;;;13.82;5.53;;;;;;;23.46;nan;100455.03;5011990;28;20387;-74
2022/07/23 05:59:32;;;;;;;16.70;5.35;;;;;;;23.60;nan;100475.66;5012840;28;20056;-72
2022/07/23 06:01:57;;;;;;;15.68;5.05;;;;;;;23.72;nan;100468.56;5010658;28;20048;-74
2022/07/23 06:04:23;;;;;;;15.70;5.20;;;;;;;23.86;nan;100479.25;5009070;28;20033;-72
2022/07/23 06:06:48;;;;;;;15.27;5.72;;;;;;;;;;5012039;28;20500;-73
2022/07/23 06:09:14;;;;;;;10.97;5.00;;;;;;;24.06;nan;100477.06;5010357;28;20030;-73
2022/07/23 06:11:40;;;;;;;11.55;4.93;;;;;;;24.26;nan;100473.00;5010861;28;20112;-74
2022/07/23 06:14:05;;;;;;;11.90;5.35;;;;;;;;;;5009983;28;20076;-75
2022/07/23 06:16:31;;;;;;;12.55;5.20;;;;;;;;;;5008579;28;20109;-73
2022/07/23 06:18:56;;;;;;;13.73;5.40;;;;;;;24.50;nan;100459.13;5009119;28;20054;-73
2022/07/23 06:21:22;;;;;;;8.55;5.00;;;;;;;24.64;nan;100475.91;5010179;28;20499;-73
2022/07/23 06:23:47;;;;;;;17.52;5.03;;;;;;;24.65;nan;100477.47;5009326;28;20553;-74
2022/07/23 06:26:13;;;;;;;15.65;5.05;;;;;;;24.88;nan;100479.97;5011043;28;20049;-73
2022/07/23 06:28:38;;;;;;;12.73;5.40;;;;;;;25.04;nan;100468.41;5009320;28;20523;-73
2022/07/23 06:31:03;;;;;;;15.73;5.38;;;;;;;25.16;nan;100480.41;5013741;28;20033;-73
2022/07/23 06:33:29;;;;;;;11.40;5.38;;;;;;;25.34;nan;100476.59;5012561;28;20038;-72
2022/07/23 06:35:54;;;;;;;13.40;5.47;;;;;;;25.45;nan;100474.31;5013154;28;20065;-73
2022/07/23 06:38:19;;;;;;;9.02;4.60;;;;;;;25.59;nan;100487.59;5013944;28;20034;-73
2022/07/23 06:40:45;;;;;;;7.68;5.03;;;;;;;25.71;nan;100458.00;5013354;28;20037;-74
2022/07/23 06:43:10;;;;;;;11.43;4.80;;;;;;;25.90;nan;100484.59;5013687;28;20032;-73
2022/07/23 06:45:36;;;;;;;12.18;4.85;;;;;;;26.02;nan;100482.00;5012723;28;20045;-73
2022/07/23 06:48:02;;;;;;;8.77;5.10;;;;;;;26.06;nan;100464.03;5015210;28;20076;-75
2022/07/23 06:50:28;;;;;;;11.85;5.13;;;;;;;26.09;nan;100479.56;5012333;28;20033;-73
2022/07/23 06:52:54;;;;;;;11.98;5.57;;;;;;;26.18;nan;100514.59;5012635;28;20037;-73
2022/07/23 06:55:19;;;;;;;14.88;5.70;;;;;;;26.31;nan;100464.16;5013629;28;20038;-74
2022/07/23 06:57:45;;;;;;;13.65;5.15;;;;;;;26.44;nan;100457.72;5011246;28;20511;-74
2022/07/23 07:00:10;;;;;;;9.07;5.47;;;;;;;26.57;nan;100468.59;5015420;28;20040;-74
2022/07/23 07:02:36;;;;;;;11.13;5.82;;;;;;;26.74;nan;100476.56;5010545;28;20480;-74
2022/07/23 07:05:02;;;;;;;22.02;5.55;;;;;;;26.86;nan;100479.28;5014868;28;20112;-72
2022/07/23 07:07:27;;;;;;;10.07;5.07;;;;;;;26.99;nan;100463.13;5013005;28;20117;-74
2022/07/23 07:09:53;;;;;;;11.15;5.43;;;;;;;27.24;nan;100478.28;5014686;28;20165;-74
2022/07/23 07:12:18;;;;;;;10.38;5.43;;;;;;;27.24;nan;100475.59;5012110;28;20037;-74
2022/07/23 07:14:44;;;;;;;13.20;5.47;;;;;;;27.31;nan;100523.72;5012353;28;20121;-74
2022/07/23 07:17:10;;;;;;;10.75;5.30;;;;;;;27.39;nan;100462.53;5014397;28;20044;-75
2022/07/23 07:19:36;;;;;;;8.93;5.05;;;;;;;27.53;nan;100473.81;5011257;28;20026;-74
2022/07/23 07:22:02;;;;;;;16.20;5.72;;;;;;;27.61;nan;100470.22;5011050;28;20519;-74
2022/07/23 07:24:27;;;;;;;13.45;5.40;;;;;;;;;;5011577;28;20045;-74
2022/07/23 07:26:53;;;;;;;13.30;5.53;;;;;;;27.95;nan;100457.38;5010700;28;20050;-74
2022/07/23 07:29:18;;;;;;;12.35;5.50;;;;;;;;;;5013469;28;20333;-74
2022/07/23 07:31:43;;;;;;;9.25;4.97;;;;;;;28.16;nan;100474.25;5009241;28;20061;-74
2022/07/23 07:34:09;;;;;;;10.65;5.18;;;;;;;28.28;nan;100478.84;5013115;28;20617;-74
2022/07/23 07:36:36;;;;;;;17.10;5.45;;;;;;;28.34;nan;100501.06;5009585;28;20044;-75
2022/07/23 07:39:04;;;;;;;13.10;5.53;;;;;;;28.40;nan;100467.97;5012791;28;20065;-74
2022/07/23 07:41:30;;;;;;;13.70;5.75;;;;;;;28.45;nan;100504.88;5013763;28;20032;-75
2022/07/23 07:43:55;;;;;;;9.93;4.70;;;;;;;28.72;nan;100489.00;5011959;28;20052;-73
2022/07/23 07:46:23;;;;;;;11.80;4.97;;;;;;;28.72;nan;100481.66;5012330;28;20037;-74
2022/07/23 07:48:49;;;;;;;14.15;4.80;;;;;;;28.82;nan;100474.94;5011827;28;20037;-73
2022/07/23 07:51:15;;;;;;;11.88;4.88;;;;;;;28.96;nan;100458.28;5010948;28;20045;-74
2022/07/23 07:53:40;;;;;;;16.98;4.82;;;;;;;29.03;nan;100478.22;5007000;28;20080;-73
2022/07/23 07:56:06;;;;;;;13.05;5.03;;;;;;;29.14;nan;100488.56;5011698;28;20041;-69
2022/07/23 07:58:31;;;;;;;11.55;4.80;;;;;;;29.22;nan;100480.28;5012796;28;20030;-69
2022/07/23 08:00:57;;;;;;;9.60;4.80;;;;;;;29.31;nan;100474.69;5008744;28;20026;-69
2022/07/23 08:03:22;;;;;;;11.10;4.85;;;;;;;29.45;nan;100490.50;5010759;28;20060;-68
2022/07/23 08:05:47;;;;;;;14.27;4.82;;;;;;;29.54;nan;100425.22;5011023;28;20026;-70
2022/07/23 08:08:16;;;;;;;23.20;5.55;;;;;;;29.69;nan;100484.16;5011877;28;20117;-67
2022/07/23 08:10:43;;;;;;;11.18;5.22;;;;;;;29.81;nan;100440.59;5010029;28;20030;-69
2022/07/23 08:13:16;;;;;;;12.30;5.18;;;;;;;29.95;nan;100471.91;5011097;28;20044;-68
2022/07/23 08:15:42;;;;;;;10.30;5.00;;;;;;;30.10;nan;100468.38;5008940;28;20045;-69
2022/07/23 08:18:07;;;;;;;10.45;4.80;;;;;;;30.24;nan;100486.88;5010511;28;20113;-69
2022/07/23 08:20:33;;;;;;;26.08;5.35;;;;;;;30.36;nan;100478.66;5011334;28;20496;-69
2022/07/23 08:23:03;;;;;;;13.52;5.57;;;;;;;30.43;nan;100438.03;5012811;28;20034;-69
2022/07/23 08:25:34;;;;;;;15.27;5.07;;;;;;;30.61;nan;100476.41;4971449;28;1197625;-70
2022/07/23 08:28:02;;;;;;;9.93;4.68;;;;;;;30.69;nan;100471.88;5013575;28;20113;-68
2022/07/23 08:30:28;;;;;;;11.50;4.72;;;;;;;30.79;nan;100508.56;5012935;28;20030;-69
2022/07/23 08:32:57;;;;;;;12.18;5.05;;;;;;;30.94;nan;100486.78;5011797;28;20030;-69
2022/07/23 08:35:44;;;;;;;12.60;4.78;;;;;;;31.05;nan;100473.34;5011469;28;20026;-70
2022/07/23 08:38:11;;;;;;;12.52;5.13;;;;;;;31.04;nan;100460.13;5011655;28;20037;-70
2022/07/23 08:40:45;;;;;;;13.07;4.38;;;;;;;31.21;nan;100447.97;5007830;28;20034;-70
2022/07/23 08:43:13;;;;;;;7.65;4.53;;;;;;;31.31;nan;100401.09;5011208;28;20403;-69
2022/07/23 08:45:44;;;;;;;10.77;4.83;;;;;;;31.41;nan;100459.56;5013019;28;20112;-69
2022/07/23 08:48:15;;;;;;;20.42;4.72;;;;;;;31.51;nan;100458.94;5011138;28;20132;-70
2022/07/23 08:50:49;;;;;;;15.25;4.68;;;;;;;31.51;nan;100446.16;5012970;28;20392;-70
2022/07/23 08:53:16;;;;;;;9.02;4.43;;;;;;;31.75;nan;100493.13;5010377;28;20026;-69
2022/07/23 08:55:46;;;;;;;10.63;4.80;;;;;;;31.76;nan;100489.28;5012284;28;20029;-69
2022/07/23 08:58:12;;;;;;;12.15;5.22;;;;;;;31.84;nan;100471.09;5011334;28;20492;-69
2022/07/23 09:00:37;;;;;;;14.32;4.78;;;;;;;31.92;nan;100451.78;5015413;28;20042;-69
2022/07/23 09:03:03;;;;;;;13.70;4.40;;;;;;;32.10;nan;100464.88;5011878;28;20360;-69
2022/07/23 09:05:28;;;;;;;12.40;4.63;;;;;;;32.18;nan;100433.81;5011560;28;20366;-69
2022/07/23 09:08:03;;;;;;;9.27;4.63;;;;;;;32.36;nan;100447.66;5012693;28;20034;-69
2022/07/23 09:10:28;;;;;;;8.43;5.00;;;;;;;32.48;nan;100441.19;5010713;28;20033;-70
2022/07/23 09:12:54;;;;;;;12.50;4.93;;;;;;;32.56;nan;100448.31;5011773;28;20395;-70
2022/07/23 09:15:19;;;;;;;12.32;4.00;;;;;;;32.59;nan;100458.47;5012501;28;20503;-69
2022/07/23 09:17:44;;;;;;;8.60;4.20;;;;;;;32.64;nan;100447.22;5010073;28;20337;-68
2022/07/23 09:20:16;;;;;;;7.28;4.20;;;;;;;32.81;nan;100446.63;5010961;28;20045;-70
2022/07/23 09:22:46;;;;;;;8.70;3.90;;;;;;;32.88;nan;100448.63;5011673;28;20030;-70
2022/07/23 09:25:14;;;;;;;13.18;4.03;;;;;;;33.07;nan;100458.56;5011472;28;20042;-67
2022/07/23 09:28:02;;;;;;;10.40;3.90;;;;;;;33.10;nan;100425.06;5004868;28;20034;-70
2022/07/23 09:30:30;;;;;;;10.13;3.57;;;;;;;33.16;nan;100422.75;5008921;28;20061;-69
2022/07/23 09:33:10;;;;;;;10.43;3.70;;;;;;;33.33;nan;100437.69;5008190;28;20081;-68
2022/07/23 09:35:51;;;;;;;8.15;2.88;;;;;;;33.40;nan;100429.56;5009395;28;20056;-69
2022/07/23 09:38:18;;;;;;;9.45;3.58;;;;;;;33.41;nan;100459.22;5026182;28;20044;-69
2022/07/23 09:40:45;;;;;;;10.32;3.97;;;;;;;33.55;nan;100430.47;5010683;28;20326;-69
2022/07/23 09:43:12;;;;;;;9.55;3.97;;;;;;;33.61;nan;100416.06;5010335;28;20026;-69
2022/07/23 09:45:39;;;;;;;11.75;3.60;;;;;;;33.63;nan;100416.47;5010272;28;20025;-69
2022/07/23 09:48:13;;;;;;;10.20;3.55;;;;;;;33.70;nan;100453.19;5007828;28;20037;-69
2022/07/23 09:50:40;;;;;;;11.85;3.90;;;;;;;33.82;nan;100420.88;5009564;28;20030;-69
2022/07/23 09:53:06;;;;;;;9.85;3.47;;;;;;;33.90;nan;100432.59;5006771;28;20033;-69
2022/07/23 09:55:37;;;;;;;14.77;4.38;;;;;;;34.00;nan;100395.56;5024503;28;20041;-70
2022/07/23 09:58:05;;;;;;;8.65;3.95;;;;;;;34.01;nan;100397.94;5008301;28;20109;-68
2022/07/23 10:00:32;;;;;;;8.55;3.50;;;;;;;34.14;nan;100405.81;5008317;28;20176;-71
2022/07/23 10:02:59;;;;;;;8.20;3.55;;;;;;;34.21;nan;100389.44;5011197;28;20160;-70
2022/07/23 10:05:25;;;;;;;8.93;3.35;;;;;;;34.36;nan;100401.19;5006508;28;20574;-70
2022/07/23 10:07:51;;;;;;;9.65;3.55;;;;;;;34.48;nan;100398.06;5017236;28;20068;-70
2022/07/23 10:10:17;;;;;;;8.40;3.30;;;;;;;34.55;nan;100410.97;5010936;28;20064;-70
2022/07/23 10:15:12;;;;;;;12.63;3.72;;;;;;;34.65;nan;100382.91;5011837;28;20030;-69
2022/07/23 10:17:37;;;;;;;7.95;3.40;;;;;;;34.72;nan;100429.41;5011718;28;20026;-69
2022/07/23 10:20:04;;;;;;;10.10;3.53;;;;;;;34.79;nan;100384.84;5008150;28;20034;-70
2022/07/23 10:22:32;;;;;;;7.10;3.38;;;;;;;34.83;nan;100402.81;5011186;28;20148;-69
2022/07/23 10:25:04;;;;;;;9.73;3.63;;;;;;;34.83;nan;100397.34;5008335;28;20045;-70
2022/07/23 10:27:38;;;;;;;12.18;3.45;;;;;;;34.84;nan;100388.00;5011344;28;20050;-68
2022/07/23 10:30:30;;;;;;;8.57;3.33;;;;;;;35.04;nan;100382.13;5023408;28;20041;-68
2022/07/23 10:33:09;;;;;;;17.85;3.47;;;;;;;35.08;nan;100358.25;5008983;28;20050;-67
2022/07/23 10:35:41;;;;;;;9.82;3.35;;;;;;;35.12;nan;100409.09;5011796;28;20034;-69
2022/07/23 10:38:09;;;;;;;8.82;2.90;;;;;;;35.20;nan;100368.84;5011295;28;20022;-68
2022/07/23 10:40:34;;;;;;;5.40;3.03;;;;;;;35.22;nan;100311.72;5011456;28;20145;-68
2022/07/23 10:43:03;;;;;;;8.43;3.10;;;;;;;35.28;nan;100408.69;5011229;28;20531;-69
2022/07/23 10:45:34;;;;;;;9.18;3.40;;;;;;;35.38;nan;100348.84;5011580;28;20021;-68
2022/07/23 10:48:17;;;;;;;9.05;3.67;;;;;;;35.47;nan;100380.09;5010814;28;20034;-68
2022/07/23 10:50:44;;;;;;;10.43;3.90;;;;;;;35.55;nan;100345.25;5011832;28;20045;-69
2022/07/23 10:53:15;;;;;;;8.48;3.13;;;;;;;35.63;nan;100335.06;5010162;28;20121;-68
2022/07/23 10:55:45;;;;;;;6.78;3.17;;;;;;;35.57;nan;100323.72;5008685;28;20030;-68
2022/07/23 10:58:11;;;;;;;8.65;3.30;;;;;;;35.65;nan;100333.50;5010648;28;20033;-68
2022/07/23 11:00:37;;;;;;;11.38;3.20;;;;;;;35.75;nan;100354.59;5011581;28;20105;-69
2022/07/23 11:03:07;;;;;;;9.48;3.17;;;;;;;35.80;nan;100345.19;5007599;28;20089;-69
2022/07/23 11:05:43;;;;;;;8.88;3.80;;;;;;;35.91;nan;100334.16;5009171;28;20540;-69
2022/07/23 11:08:10;;;;;;;9.30;3.55;;;;;;;36.00;nan;100342.72;5011659;28;20753;-69
2022/07/23 11:10:36;;;;;;;7.90;3.40;;;;;;;36.11;nan;100348.16;5008991;28;20042;-69
2022/07/23 11:13:21;;;;;;;10.13;3.72;;;;;;;36.15;nan;100335.22;5008342;28;20060;-68
2022/07/23 11:16:23;;;;;;;7.18;3.45;;;;;;;36.06;nan;100323.88;5012651;28;20125;-69
2022/07/23 11:18:48;;;;;;;10.23;3.05;;;;;;;36.20;nan;100332.06;5011050;28;20038;-68
2022/07/23 11:21:29;;;;;;;7.32;3.08;;;;;;;36.22;nan;100334.41;5012641;28;20026;-69
2022/07/23 11:24:03;;;;;;;6.57;3.33;;;;;;;36.28;nan;100332.81;5013554;28;20581;-69
2022/07/23 11:26:43;;;;;;;9.65;3.25;;;;;;;36.41;nan;100333.88;5014458;28;20032;-70
2022/07/23 11:29:27;;;;;;;12.10;3.65;;;;;;;36.46;nan;100333.44;5014219;28;20021;-67
2022/07/23 11:32:02;;;;;;;8.55;4.05;;;;;;;36.53;nan;100327.13;5005325;28;20030;-68
2022/07/23 11:34:43;;;;;;;7.63;3.42;;;;;;;36.61;nan;100328.63;5011644;28;20041;-69
2022/07/23 11:37:11;;;;;;;8.77;3.30;;;;;;;36.60;nan;100266.75;5013635;28;20038;-73
2022/07/23 11:39:38;;;;;;;10.18;3.47;;;;;;;36.59;nan;100326.31;5015591;28;20041;-71
2022/07/23 11:42:05;;;;;;;9.43;3.15;;;;;;;36.60;nan;100324.34;5015302;28;20026;-68
2022/07/23 11:44:33;;;;;;;9.80;3.45;;;;;;;36.63;nan;100315.28;5014363;28;20116;-68
2022/07/23 11:47:01;;;;;;;10.63;3.83;;;;;;;36.74;nan;100317.97;5011025;28;20037;-68